Time;durP1;ratioP1;P1;durP2;ratioP2;P2;SDS_P1;SDS_P2;PMS_P1;PMS_P2;Temp;Humidity;BMP_temperature;BMP_pressure;BME280_temperature;BME280_humidity;BME280_pressure;Samples;Min_cycle;Max_cycle;Signal;HPM_P1;HPM_P2
2023/06/30 00:01:59;;;;;;;5.35;4.85;;;;;;;23.11;56.11;99693.25;10335216;28;20148;-69
2023/06/30 00:07:01;;;;;;;5.35;4.80;;;;;;;23.09;56.31;99687.19;10334388;28;20131;-68
2023/06/30 00:12:03;;;;;;;7.82;5.82;;;;;;;23.12;56.42;99689.47;10336377;28;20048;-68
2023/06/30 00:17:04;;;;;;;8.75;5.82;;;;;;;23.08;56.66;99693.66;10388258;28;20033;-69
2023/06/30 00:22:06;;;;;;;6.47;5.88;;;;;;;23.02;57.44;99708.09;10379781;28;20417;-68
2023/06/30 00:27:07;;;;;;;7.53;5.45;;;;;;;23.01;57.48;99690.13;10352374;28;20068;-68
2023/06/30 00:32:08;;;;;;;7.97;5.50;;;;;;;22.96;57.59;99685.38;10347442;28;20057;-69
2023/06/30 00:37:10;;;;;;;7.95;6.28;;;;;;;22.82;57.82;99676.50;10347899;28;20071;-68
2023/06/30 00:42:11;;;;;;;6.60;5.57;;;;;;;22.85;57.85;99681.47;10332078;28;20969;-68
2023/06/30 00:47:13;;;;;;;7.32;5.90;;;;;;;22.92;57.81;99690.41;10348476;28;20038;-69
2023/06/30 00:52:14;;;;;;;7.00;5.60;;;;;;;22.91;57.84;99674.34;10368837;28;20054;-69
2023/06/30 00:57:16;;;;;;;5.93;5.30;;;;;;;22.85;57.97;99670.63;10332361;28;20055;-68
2023/06/30 01:02:28;;;;;;;5.95;5.13;;;;;;;22.79;58.54;99679.66;10334181;28;20057;-68
2023/06/30 01:07:41;;;;;;;7.70;5.33;;;;;;;22.77;58.76;99684.44;10331681;28;20098;-68
2023/06/30 01:12:44;;;;;;;6.45;5.25;;;;;;;22.78;58.90;99678.78;10330608;28;20141;-68
2023/06/30 01:17:53;;;;;;;5.95;4.65;;;;;;;22.71;59.63;99666.31;10328531;28;20487;-68
2023/06/30 01:23:15;;;;;;;4.82;4.22;;;;;;;22.69;59.86;99663.00;10329402;28;20173;-68
2023/06/30 01:28:17;;;;;;;6.72;4.97;;;;;;;22.68;59.77;99661.34;10327182;28;20057;-69
2023/06/30 01:33:19;;;;;;;7.87;4.40;;;;;;;22.71;60.37;99669.03;10344784;28;20704;-68
2023/06/30 01:38:20;;;;;;;5.00;4.50;;;;;;;22.71;60.38;99658.19;10328705;28;20299;-68
2023/06/30 01:43:23;;;;;;;8.40;5.45;;;;;;;22.64;60.46;99662.81;10321423;28;20111;-68
2023/06/30 01:48:25;;;;;;;5.63;4.60;;;;;;;22.65;60.38;99659.88;10329001;28;20056;-68
2023/06/30 01:53:26;;;;;;;6.90;4.78;;;;;;;22.60;60.40;99657.81;10320940;28;20042;-68
2023/06/30 01:58:28;;;;;;;5.35;4.85;;;;;;;22.55;60.51;99638.66;10330364;28;20049;-68
2023/06/30 02:03:29;;;;;;;6.68;5.40;;;;;;;22.50;60.54;99632.22;10327155;28;20057;-68
2023/06/30 02:08:31;;;;;;;6.65;5.72;;;;;;;22.41;60.68;99626.22;10325783;28;20105;-68
2023/06/30 02:13:32;;;;;;;6.57;5.75;;;;;;;22.42;60.38;99615.16;10329470;28;20052;-68
2023/06/30 02:18:34;;;;;;;8.02;6.07;;;;;;;22.38;60.76;99632.91;10327708;28;20800;-68
2023/06/30 02:23:35;;;;;;;6.18;5.57;;;;;;;22.40;60.41;99638.94;10327788;28;20745;-68
2023/06/30 02:28:37;;;;;;;7.00;6.20;;;;;;;22.36;60.65;99640.41;10328115;28;20389;-67
2023/06/30 02:33:38;;;;;;;8.18;5.72;;;;;;;22.36;60.51;99642.31;10329004;28;20104;-68
2023/06/30 02:38:40;;;;;;;6.30;5.68;;;;;;;22.33;60.42;99637.31;10323266;28;20124;-68
2023/06/30 02:43:42;;;;;;;7.10;5.82;;;;;;;22.32;60.70;99639.19;10330726;28;20620;-68
2023/06/30 02:48:44;;;;;;;7.13;5.93;;;;;;;22.30;60.89;99640.44;10327769;28;21040;-68
2023/06/30 02:53:45;;;;;;;8.20;6.13;;;;;;;22.27;61.19;99635.44;10336950;28;20097;-68
2023/06/30 02:58:47;;;;;;;6.68;6.05;;;;;;;22.20;61.74;99636.31;10341397;28;20054;-68
2023/06/30 03:03:48;;;;;;;6.00;5.10;;;;;;;22.17;61.91;99631.31;10365383;28;20088;-68
2023/06/30 03:08:50;;;;;;;6.65;5.95;;;;;;;22.11;62.27;99631.31;10385510;28;20038;-69
2023/06/30 03:13:52;;;;;;;6.40;5.80;;;;;;;22.11;62.10;99618.59;10367894;28;20593;-68
2023/06/30 03:18:53;;;;;;;7.68;6.88;;;;;;;22.12;62.60;99627.59;10338228;28;20644;-68
2023/06/30 03:23:55;;;;;;;7.65;6.85;;;;;;;22.04;62.51;99615.09;10336991;28;20516;-68
2023/06/30 03:28:57;;;;;;;8.57;7.00;;;;;;;21.98;62.99;99621.34;10334166;28;20142;-68
2023/06/30 03:33:59;;;;;;;11.30;8.88;;;;;;;21.92;63.43;99611.38;10341160;28;20136;-68
2023/06/30 03:39:00;;;;;;;10.68;9.38;;;;;;;21.89;63.44;99629.72;10333767;28;20058;-69
2023/06/30 03:44:02;;;;;;;11.77;10.57;;;;;;;21.83;63.56;99614.34;10346067;28;20696;-67
2023/06/30 03:49:03;;;;;;;15.60;11.48;;;;;;;21.82;64.29;99630.78;10336929;28;20537;-68
2023/06/30 03:54:05;;;;;;;11.93;10.73;;;;;;;21.87;64.08;99639.97;10336975;28;20144;-70
2023/06/30 03:59:09;;;;;;;14.38;11.90;;;;;;;21.88;65.76;99663.28;10349805;28;20487;-67
2023/06/30 04:04:11;;;;;;;12.82;10.60;;;;;;;21.69;68.36;99667.72;10334031;28;20153;-66
2023/06/30 04:09:13;;;;;;;16.40;11.60;;;;;;;21.63;69.94;99646.03;10332729;28;20145;-68
2023/06/30 04:14:14;;;;;;;15.85;11.68;;;;;;;21.66;71.51;99651.03;10331644;28;20174;-69
2023/06/30 04:19:16;;;;;;;15.70;12.18;;;;;;;21.48;72.69;99652.50;10332424;28;20505;-67
2023/06/30 04:24:19;;;;;;;13.27;10.75;;;;;;;21.59;72.24;99658.31;10334294;28;20049;-68
2023/06/30 04:29:20;;;;;;;16.98;12.55;;;;;;;21.60;73.56;99630.22;10332794;28;20057;-67
2023/06/30 04:34:22;;;;;;;14.52;12.85;;;;;;;21.55;72.95;99609.19;10332262;28;20103;-68
2023/06/30 04:39:23;;;;;;;18.48;13.60;;;;;;;21.57;74.08;99608.97;10333974;28;20064;-68
2023/06/30 04:44:25;;;;;;;15.52;13.93;;;;;;;21.61;74.19;99615.63;10346702;28;20204;-67
2023/06/30 04:49:26;;;;;;;15.95;13.98;;;;;;;21.62;74.67;99630.81;10331821;28;20049;-67
2023/06/30 04:54:28;;;;;;;17.73;14.35;;;;;;;21.56;75.80;99631.66;10338628;28;20046;-67
2023/06/30 04:59:29;;;;;;;15.77;13.95;;;;;;;21.53;74.81;99641.88;10343571;28;20688;-67
2023/06/30 05:04:31;;;;;;;20.38;16.38;;;;;;;21.35;77.77;99642.50;10317100;28;20907;-66
2023/06/30 05:09:33;;;;;;;20.95;14.70;;;;;;;21.44;77.23;99640.41;10320035;28;20066;-68
2023/06/30 05:14:35;;;;;;;16.60;14.77;;;;;;;21.34;77.12;99627.28;10320428;28;20523;-67
2023/06/30 05:19:36;;;;;;;19.85;15.13;;;;;;;21.46;76.98;99634.78;10327464;28;20223;-67
2023/06/30 05:24:38;;;;;;;19.23;15.10;;;;;;;21.47;77.29;99637.28;10331145;28;20124;-68
2023/06/30 05:29:39;;;;;;;19.80;16.40;;;;;;;21.34;77.48;99634.59;10322810;28;20119;-68
2023/06/30 05:34:46;;;;;;;20.90;15.60;;;;;;;21.36;78.78;99630.63;10325332;28;20045;-69
2023/06/30 05:39:47;;;;;;;19.40;16.65;;;;;;;21.42;78.95;99626.25;10338338;28;20077;-69
2023/06/30 05:44:50;;;;;;;19.40;16.90;;;;;;;21.52;78.65;99623.16;10338768;28;20524;-68
2023/06/30 05:49:52;;;;;;;21.95;18.30;;;;;;;21.66;78.05;99634.78;10319059;28;20050;-68
2023/06/30 05:54:53;;;;;;;20.25;18.13;;;;;;;21.68;79.37;99643.53;10323935;28;20453;-70
2023/06/30 05:59:55;;;;;;;21.95;18.23;;;;;;;21.45;79.77;99646.66;10339510;28;20124;-67
2023/06/30 06:04:56;;;;;;;21.33;18.27;;;;;;;21.39;82.15;99661.84;10368843;28;20057;-68
2023/06/30 06:09:58;;;;;;;19.70;17.08;;;;;;;21.53;80.98;99660.84;10350397;28;20053;-67
2023/06/30 06:14:59;;;;;;;20.27;16.73;;;;;;;21.64;81.35;99663.97;10318961;28;20046;-68
2023/06/30 06:20:01;;;;;;;22.88;16.80;;;;;;;21.63;81.43;99668.56;10322251;28;20062;-67
2023/06/30 06:25:03;;;;;;;17.90;15.70;;;;;;;21.76;80.05;99672.28;10321543;28;20046;-67
2023/06/30 06:30:05;;;;;;;17.50;15.68;;;;;;;21.81;79.73;99662.47;10329136;28;20057;-66
2023/06/30 06:35:06;;;;;;;17.00;14.85;;;;;;;21.73;78.20;99672.69;10333029;28;20325;-67
2023/06/30 06:40:08;;;;;;;20.33;16.83;;;;;;;21.70;77.71;99679.38;10327787;28;20046;-68
2023/06/30 06:45:12;;;;;;;17.27;14.37;;;;;;;21.76;79.28;99678.53;10331391;28;20601;-70
2023/06/30 06:50:13;;;;;;;18.52;16.30;;;;;;;21.86;79.30;99684.34;10328835;28;20050;-68
2023/06/30 06:55:15;;;;;;;21.30;15.23;;;;;;;21.71;78.06;99678.34;10328194;28;20523;-70
2023/06/30 07:00:17;;;;;;;18.80;16.15;;;;;;;21.92;76.82;99681.81;10327977;28;21243;-67
2023/06/30 07:05:18;;;;;;;28.35;20.80;;;;;;;22.01;76.68;99675.16;10322575;28;20053;-65
2023/06/30 07:10:20;;;;;;;25.75;22.40;;;;;;;22.03;76.34;99683.88;10322332;28;20045;-69
2023/06/30 07:15:22;;;;;;;27.27;21.88;;;;;;;22.16;73.98;99689.28;10322792;28;20452;-67
2023/06/30 07:20:24;;;;;;;26.90;22.15;;;;;;;21.97;74.57;99696.41;10341808;28;20512;-70
2023/06/30 07:25:25;;;;;;;18.00;14.75;;;;;;;21.89;74.07;99700.16;10327428;28;20058;-67
2023/06/30 07:30:27;;;;;;;15.25;13.07;;;;;;;22.18;73.57;99698.00;10328274;28;20061;-67
2023/06/30 07:35:29;;;;;;;6.47;5.85;;;;;;;22.06;71.80;99705.13;10327404;28;20237;-67
2023/06/30 07:40:30;;;;;;;5.38;4.88;;;;;;;21.97;72.23;99709.13;10324627;28;20113;-68
2023/06/30 07:45:52;;;;;;;8.30;5.82;;;;;;;21.81;73.51;99703.13;10330147;28;20559;-68
2023/06/30 07:50:53;;;;;;;6.55;5.57;;;;;;;21.96;72.48;99710.16;10330097;28;20054;-69
2023/06/30 07:56:09;;;;;;;4.63;3.60;;;;;;;22.12;71.17;99715.13;10335321;28;20096;-68
2023/06/30 08:01:11;;;;;;;3.35;2.42;;;;;;;22.13;69.93;99722.22;10345308;28;20509;-67
2023/06/30 08:06:12;;;;;;;4.43;1.92;;;;;;;22.24;69.97;99718.84;10330385;28;20050;-70
2023/06/30 08:11:14;;;;;;;2.10;1.73;;;;;;;22.20;68.31;99728.47;10333898;28;20053;-68
2023/06/30 08:16:15;;;;;;;2.35;1.33;;;;;;;22.21;68.92;99727.41;10357013;28;20060;-72
2023/06/30 08:21:17;;;;;;;2.15;1.55;;;;;;;22.12;69.23;99723.25;10344734;28;20095;-67
2023/06/30 08:26:18;;;;;;;4.00;1.60;;;;;;;22.21;68.01;99729.28;10345326;28;20074;-68
2023/06/30 08:31:20;;;;;;;3.08;1.33;;;;;;;22.07;68.08;99709.53;10354216;22;20580;-71
2023/06/30 08:36:23;;;;;;;2.53;1.50;;;;;;;22.10;68.04;99722.66;10418548;28;20053;-68
2023/06/30 08:41:25;;;;;;;1.23;0.98;;;;;;;21.94;67.11;99740.16;10433206;28;20267;-69
2023/06/30 08:46:30;;;;;;;1.15;0.85;;;;;;;21.58;68.50;99737.91;10437804;28;20557;-67
2023/06/30 08:51:32;;;;;;;1.60;1.17;;;;;;;21.43;68.37;99743.50;10419964;28;20079;-67
2023/06/30 08:56:38;;;;;;;1.80;0.90;;;;;;;21.28;69.27;99746.41;10406344;28;20366;-66
2023/06/30 09:01:41;;;;;;;1.35;0.68;;;;;;;21.47;69.11;99736.63;10416621;28;20236;-68
2023/06/30 09:06:47;;;;;;;1.10;0.80;;;;;;;21.58;68.35;99749.56;10420468;28;21220;-68
2023/06/30 09:11:50;;;;;;;1.70;0.63;;;;;;;21.47;68.59;99744.75;10417699;28;20053;-66
2023/06/30 09:16:51;;;;;;;3.03;0.90;;;;;;;21.48;68.46;99755.38;10396586;28;20103;-67
2023/06/30 09:21:53;;;;;;;1.23;0.73;;;;;;;21.47;68.87;99756.41;10403788;28;20120;-66
2023/06/30 09:26:55;;;;;;;1.60;0.73;;;;;;;21.60;67.85;99760.19;10404301;28;20494;-66
2023/06/30 09:32:00;;;;;;;0.95;0.50;;;;;;;21.67;67.30;99752.91;10407021;28;20520;-67
2023/06/30 09:37:04;;;;;;;1.67;0.50;;;;;;;21.70;66.95;99750.59;10405455;28;20584;-68
2023/06/30 09:42:15;;;;;;;2.45;0.75;;;;;;;21.68;66.48;99762.72;10397470;28;20044;-68
2023/06/30 09:47:17;;;;;;;1.35;0.30;;;;;;;21.45;66.43;99747.69;10406295;28;20659;-67
2023/06/30 09:52:27;;;;;;;0.50;0.30;;;;;;;21.36;66.42;99770.53;10401666;28;20689;-67
2023/06/30 09:57:29;;;;;;;0.40;0.32;;;;;;;21.29;66.82;99769.72;10401540;28;20041;-67
2023/06/30 10:02:31;;;;;;;1.95;0.40;;;;;;;21.30;66.34;99771.38;10411191;28;20324;-68
2023/06/30 10:07:33;;;;;;;0.33;0.10;;;;;;;21.36;66.92;99766.00;10416167;28;20049;-67
2023/06/30 10:12:37;;;;;;;1.10;0.37;;;;;;;21.35;66.22;99769.72;10425712;28;20045;-66
2023/06/30 10:17:43;;;;;;;0.68;0.40;;;;;;;21.25;66.19;99769.28;10415764;28;20578;-66
2023/06/30 10:22:45;;;;;;;3.28;0.30;;;;;;;21.15;66.39;99779.66;10413558;28;21413;-67
2023/06/30 10:27:47;;;;;;;0.63;0.30;;;;;;;21.21;66.13;99784.25;10412642;28;20053;-65
2023/06/30 10:32:49;;;;;;;0.60;0.33;;;;;;;20.92;66.73;99797.06;10414792;28;20863;-67
2023/06/30 10:37:52;;;;;;;0.98;0.52;;;;;;;21.11;66.51;99792.78;10414436;28;20055;-65
2023/06/30 10:42:55;;;;;;;1.10;0.10;;;;;;;21.25;65.85;99800.94;10412570;28;20086;-67
2023/06/30 10:47:57;;;;;;;5.18;1.20;;;;;;;21.24;65.08;99789.25;10406819;28;20295;-69
2023/06/30 10:53:01;;;;;;;0.50;0.10;;;;;;;21.34;64.08;99795.13;10400981;28;20060;-66
2023/06/30 10:58:04;;;;;;;1.73;0.13;;;;;;;21.31;63.17;99782.00;10408089;28;20404;-65
2023/06/30 11:03:06;;;;;;;0.43;0.10;;;;;;;21.14;63.20;99761.78;10405353;28;22136;-68
2023/06/30 11:08:21;;;;;;;0.43;0.20;;;;;;;21.06;63.40;99795.25;10405517;28;20110;-68
2023/06/30 11:13:36;;;;;;;0.98;0.20;;;;;;;21.02;63.00;99788.59;10403077;28;20525;-67
2023/06/30 11:18:38;;;;;;;1.08;0.45;;;;;;;20.79;63.54;99787.06;10400159;28;20041;-67
2023/06/30 11:23:42;;;;;;;0.52;0.30;;;;;;;20.78;65.16;99795.38;10408497;28;20083;-70
2023/06/30 11:28:49;;;;;;;1.33;0.30;;;;;;;21.09;64.37;99792.16;10409323;28;20049;-67
2023/06/30 11:33:51;;;;;;;0.60;0.20;;;;;;;21.12;63.10;99788.19;10401880;28;20076;-68
2023/06/30 11:38:54;;;;;;;0.60;0.40;;;;;;;21.16;63.19;99786.75;10409327;28;20515;-67
2023/06/30 11:43:56;;;;;;;0.75;0.20;;;;;;;21.20;63.51;99777.19;10409418;28;21401;-66
2023/06/30 11:48:57;;;;;;;0.35;0.30;;;;;;;21.31;62.60;99795.53;10402442;28;20481;-66
2023/06/30 11:53:59;;;;;;;0.75;0.40;;;;;;;21.38;62.00;99787.44;10406126;28;20126;-67
2023/06/30 11:59:00;;;;;;;1.05;0.30;;;;;;;21.45;62.29;99787.44;10405276;28;20064;-67
2023/06/30 12:04:08;;;;;;;0.63;0.40;;;;;;;21.47;62.37;99782.66;10421070;28;20114;-66
2023/06/30 12:09:10;;;;;;;0.77;0.30;;;;;;;21.58;61.62;99781.25;10418312;28;20125;-67
2023/06/30 12:14:15;;;;;;;0.90;0.38;;;;;;;21.52;61.67;99777.47;10417731;28;20045;-66
2023/06/30 12:19:18;;;;;;;1.35;0.50;;;;;;;21.29;60.91;99764.31;10410734;28;20329;-67
2023/06/30 12:24:21;;;;;;;1.75;0.90;;;;;;;21.47;61.09;99769.94;10404218;28;20404;-66
2023/06/30 12:29:23;;;;;;;0.43;0.32;;;;;;;21.62;60.64;99777.06;10416631;28;20048;-66
2023/06/30 12:34:32;;;;;;;2.10;1.10;;;;;;;21.69;60.22;99764.34;10412764;28;20191;-66
2023/06/30 12:39:33;;;;;;;1.25;0.75;;;;;;;21.89;59.78;99776.03;10414429;28;20049;-67
2023/06/30 12:44:35;;;;;;;1.75;0.60;;;;;;;21.78;59.41;99746.03;10414508;28;20053;-66
2023/06/30 12:49:37;;;;;;;1.30;0.90;;;;;;;22.00;59.40;99773.72;10416384;28;20704;-66
2023/06/30 12:54:38;;;;;;;1.48;0.90;;;;;;;22.05;58.84;99763.94;10408851;28;20124;-68
2023/06/30 12:59:40;;;;;;;1.33;0.80;;;;;;;22.22;59.11;99768.91;10435510;28;20049;-68
2023/06/30 13:04:41;;;;;;;0.90;0.82;;;;;;;22.23;58.40;99771.41;10422680;28;20060;-67
2023/06/30 13:09:47;;;;;;;1.20;1.00;;;;;;;22.28;57.03;99772.63;10412029;28;20049;-69
2023/06/30 13:14:48;;;;;;;2.58;1.10;;;;;;;22.28;56.95;99775.34;10411797;28;20041;-67
2023/06/30 13:19:49;;;;;;;3.00;1.63;;;;;;;22.36;57.57;99775.97;10415054;28;20066;-67
2023/06/30 13:24:52;;;;;;;1.63;0.90;;;;;;;22.49;57.06;99774.28;10413743;28;20053;-67
2023/06/30 13:29:55;;;;;;;3.03;0.73;;;;;;;22.53;57.34;99772.81;10412644;28;20045;-67
2023/06/30 13:34:57;;;;;;;1.23;0.90;;;;;;;22.49;56.21;99739.88;10425428;28;20052;-69
2023/06/30 13:39:58;;;;;;;1.30;0.80;;;;;;;22.60;56.13;99738.38;10406809;28;20053;-68
2023/06/30 13:45:00;;;;;;;1.63;1.33;;;;;;;22.80;55.53;99748.28;10414008;28;20044;-67
2023/06/30 13:50:02;;;;;;;1.30;1.20;;;;;;;22.76;55.24;99727.03;10405542;28;20045;-68
2023/06/30 13:55:04;;;;;;;2.17;1.48;;;;;;;23.02;54.07;99736.06;10410924;28;20073;-67
2023/06/30 14:00:06;;;;;;;1.83;1.73;;;;;;;23.12;53.85;99735.63;10407025;28;20049;-67
2023/06/30 14:05:08;;;;;;;2.25;1.52;;;;;;;23.00;53.89;99726.47;10405667;28;20092;-67
2023/06/30 14:10:09;;;;;;;2.35;1.40;;;;;;;22.93;54.86;99716.47;10410202;28;20053;-68
2023/06/30 14:15:11;;;;;;;2.35;1.70;;;;;;;22.91;54.03;99718.59;10414658;28;20052;-67
2023/06/30 14:20:13;;;;;;;2.70;1.48;;;;;;;22.99;54.16;99719.41;10409169;28;20048;-66
2023/06/30 14:25:21;;;;;;;4.45;1.88;;;;;;;23.02;53.78;99716.25;10405403;28;20123;-67
2023/06/30 14:30:28;;;;;;;2.78;1.27;;;;;;;22.94;53.81;99707.31;10408112;28;20497;-67
2023/06/30 14:35:30;;;;;;;2.30;1.60;;;;;;;22.98;53.21;99712.28;10406968;28;20041;-67
2023/06/30 14:40:31;;;;;;;1.92;1.50;;;;;;;22.98;53.26;99704.16;10418058;28;20668;-67
2023/06/30 14:45:34;;;;;;;2.67;1.60;;;;;;;22.62;53.53;99703.72;10410724;28;20073;-67
2023/06/30 14:50:36;;;;;;;2.33;1.90;;;;;;;22.78;53.51;99703.22;10417051;28;20096;-67
2023/06/30 14:55:37;;;;;;;2.15;1.95;;;;;;;22.76;53.51;99699.06;10418976;28;20053;-67
2023/06/30 15:00:40;;;;;;;3.30;2.00;;;;;;;22.68;53.44;99693.88;10412303;28;20052;-67
2023/06/30 15:05:42;;;;;;;1.85;1.75;;;;;;;22.87;53.06;99682.09;10416127;28;20099;-68
2023/06/30 15:10:44;;;;;;;2.23;1.77;;;;;;;22.92;53.00;99676.00;10411791;28;20059;-67
2023/06/30 15:15:45;;;;;;;2.67;2.00;;;;;;;22.95;52.93;99681.84;10414187;28;20131;-68
2023/06/30 15:20:47;;;;;;;3.80;2.95;;;;;;;22.90;52.74;99667.25;10409778;28;20144;-67
2023/06/30 15:25:49;;;;;;;2.92;2.53;;;;;;;22.81;51.87;99663.16;10411505;28;20060;-67
2023/06/30 15:30:51;;;;;;;4.18;1.90;;;;;;;22.90;52.43;99657.22;10409327;28;20615;-69
2023/06/30 15:35:53;;;;;;;3.17;2.33;;;;;;;22.95;51.95;99654.69;10414196;28;20103;-68
2023/06/30 15:40:54;;;;;;;2.08;1.85;;;;;;;22.96;52.14;99644.66;10407441;28;20042;-67
2023/06/30 15:46:03;;;;;;;3.03;2.22;;;;;;;23.04;51.58;99657.13;10409174;28;20601;-67
2023/06/30 15:51:05;;;;;;;2.50;1.77;;;;;;;23.01;52.69;99652.16;10410228;28;20591;-68
2023/06/30 15:56:06;;;;;;;3.10;2.13;;;;;;;22.92;52.49;99644.28;10408617;28;20408;-67
2023/06/30 16:01:08;;;;;;;2.75;2.40;;;;;;;22.62;52.97;99632.38;10404593;28;20048;-66
2023/06/30 16:06:09;;;;;;;3.05;2.50;;;;;;;22.66;52.93;99628.19;10404076;28;20622;-66
2023/06/30 16:11:12;;;;;;;4.45;2.55;;;;;;;22.71;53.05;99620.22;10410925;28;20059;-66
2023/06/30 16:16:13;;;;;;;2.00;1.80;;;;;;;22.76;52.46;99614.97;10403866;28;20057;-67
2023/06/30 16:21:15;;;;;;;3.22;2.35;;;;;;;22.83;51.50;99626.59;10402455;28;20132;-67
2023/06/30 16:26:18;;;;;;;3.05;2.40;;;;;;;22.87;52.31;99613.44;10400914;28;20809;-68
2023/06/30 16:31:20;;;;;;;2.80;2.33;;;;;;;22.86;52.33;99601.72;10403854;28;20044;-66
2023/06/30 16:36:21;;;;;;;2.78;2.00;;;;;;;22.90;51.63;99613.81;10403631;28;20057;-67
2023/06/30 16:41:23;;;;;;;3.25;2.35;;;;;;;22.80;51.86;99590.94;10405438;28;20057;-67
2023/06/30 16:46:25;;;;;;;2.30;2.13;;;;;;;22.73;52.08;99585.56;10400592;28;20579;-66
2023/06/30 16:51:29;;;;;;;2.75;1.95;;;;;;;22.86;52.63;99615.28;10402236;28;20053;-67
2023/06/30 16:56:30;;;;;;;3.47;1.98;;;;;;;22.80;52.20;99615.34;10406480;28;20072;-67
2023/06/30 17:01:32;;;;;;;4.38;2.28;;;;;;;22.71;52.72;99609.34;10401105;28;21031;-66
2023/06/30 17:06:33;;;;;;;3.30;1.92;;;;;;;22.78;52.87;99627.25;10398600;28;20045;-68
2023/06/30 17:11:35;;;;;;;2.88;2.53;;;;;;;22.74;52.21;99622.47;10407939;28;20095;-68
2023/06/30 17:16:37;;;;;;;2.22;1.90;;;;;;;22.78;52.38;99631.84;10397804;28;20578;-67
2023/06/30 17:21:39;;;;;;;4.28;2.35;;;;;;;22.58;51.44;99605.69;10420716;28;20032;-71
2023/06/30 17:26:40;;;;;;;3.03;2.40;;;;;;;;;;10418324;28;20077;-67
2023/06/30 17:31:42;;;;;;;2.28;1.83;;;;;;;22.62;52.95;99616.91;10399214;28;20045;-67
2023/06/30 17:36:44;;;;;;;2.75;2.28;;;;;;;;;;10402245;28;20059;-67
2023/06/30 17:41:45;;;;;;;3.30;2.60;;;;;;;22.67;51.97;99636.09;10399497;28;20237;-65
2023/06/30 17:46:46;;;;;;;2.60;2.13;;;;;;;22.66;51.81;99637.13;10398952;28;20052;-68
2023/06/30 17:51:49;;;;;;;1.90;1.70;;;;;;;22.64;49.18;99641.09;10406943;28;20159;-65
2023/06/30 17:56:51;;;;;;;3.87;1.40;;;;;;;22.46;45.65;99629.13;10403651;28;20053;-66
2023/06/30 18:01:55;;;;;;;2.40;1.17;;;;;;;22.54;44.68;99652.44;10405547;28;20630;-66
2023/06/30 18:07:11;;;;;;;2.33;1.55;;;;;;;22.50;43.86;99651.22;10400694;28;20065;-65
2023/06/30 18:12:12;;;;;;;3.92;1.35;;;;;;;22.50;43.58;99649.31;10413316;28;20423;-68
2023/06/30 18:17:15;;;;;;;4.72;1.10;;;;;;;22.45;43.17;99648.31;10396572;28;20139;-67
2023/06/30 18:22:16;;;;;;;2.58;1.17;;;;;;;22.12;41.79;99633.81;10408887;28;20552;-66
2023/06/30 18:27:17;;;;;;;4.22;1.90;;;;;;;22.25;41.36;99650.03;10402933;28;20133;-66
2023/06/30 18:32:19;;;;;;;3.22;1.10;;;;;;;22.14;41.82;99653.41;10406349;28;20850;-66
2023/06/30 18:37:21;;;;;;;2.05;0.70;;;;;;;22.09;40.99;99660.53;10414455;28;20053;-66
2023/06/30 18:42:22;;;;;;;1.40;0.95;;;;;;;22.01;39.44;99658.88;10408446;28;20064;-65
2023/06/30 18:47:23;;;;;;;2.42;1.10;;;;;;;21.88;40.47;99657.84;10409612;28;20052;-65
2023/06/30 18:52:25;;;;;;;2.28;1.00;;;;;;;21.89;40.01;99662.25;10409617;28;20158;-65
2023/06/30 18:57:26;;;;;;;3.15;0.73;;;;;;;21.75;40.34;99671.44;10409118;28;20144;-69
2023/06/30 19:02:30;;;;;;;3.50;1.77;;;;;;;21.71;40.88;99665.59;10409010;28;20045;-66
2023/06/30 19:07:32;;;;;;;2.60;1.05;;;;;;;21.75;41.28;99676.84;10404835;28;20058;-65
2023/06/30 19:12:33;;;;;;;2.60;1.13;;;;;;;21.61;41.78;99680.63;10408229;28;20514;-67
2023/06/30 19:17:35;;;;;;;2.30;1.25;;;;;;;21.56;41.76;99689.38;10408810;28;20099;-67
2023/06/30 19:22:37;;;;;;;3.40;1.20;;;;;;;21.53;41.95;99698.75;10405200;28;20068;-70
2023/06/30 19:27:39;;;;;;;2.53;0.90;;;;;;;21.48;41.92;99709.34;10408785;28;20058;-67
2023/06/30 19:32:40;;;;;;;2.15;0.80;;;;;;;21.40;42.33;99693.31;10402579;28;20924;-66
2023/06/30 19:37:42;;;;;;;3.38;1.52;;;;;;;21.54;42.44;99703.13;10405129;28;20075;-66
2023/06/30 19:42:43;;;;;;;1.60;1.17;;;;;;;21.54;42.72;99700.44;10408082;28;20056;-66
2023/06/30 19:47:45;;;;;;;2.25;1.42;;;;;;;21.59;43.15;99704.34;10402329;28;20049;-65
2023/06/30 19:52:47;;;;;;;3.65;1.38;;;;;;;21.57;42.73;99701.03;10408099;28;20045;-66
2023/06/30 19:57:49;;;;;;;2.25;1.17;;;;;;;21.67;42.86;99717.69;10405264;28;21204;-66
2023/06/30 20:02:50;;;;;;;4.18;1.50;;;;;;;21.65;42.96;99708.97;10406651;28;20048;-67
2023/06/30 20:07:53;;;;;;;5.43;1.83;;;;;;;21.65;43.49;99712.50;10396173;28;20126;-67
2023/06/30 20:12:54;;;;;;;2.20;1.17;;;;;;;21.64;43.37;99712.72;10398324;28;20804;-66
2023/06/30 20:17:56;;;;;;;2.63;1.63;;;;;;;21.60;43.72;99727.69;10404660;28;20057;-66
2023/06/30 20:22:57;;;;;;;3.72;1.77;;;;;;;21.45;43.69;99717.91;10402320;28;20054;-68
2023/06/30 20:27:59;;;;;;;2.70;1.92;;;;;;;21.46;44.17;99706.00;10401677;28;20667;-67
2023/06/30 20:33:00;;;;;;;3.88;2.20;;;;;;;21.50;44.64;99709.19;10397618;28;20080;-66
2023/06/30 20:38:02;;;;;;;2.83;2.30;;;;;;;21.43;45.26;99701.00;10399608;28;20061;-67
2023/06/30 20:43:04;;;;;;;4.28;2.80;;;;;;;21.40;44.97;99695.19;10399080;28;20177;-65
2023/06/30 20:48:05;;;;;;;5.07;3.10;;;;;;;21.42;45.16;99703.91;10400092;28;21568;-65
2023/06/30 20:53:07;;;;;;;4.18;3.65;;;;;;;21.25;46.17;99687.25;10401279;28;20060;-66
2023/06/30 20:58:09;;;;;;;5.50;4.53;;;;;;;21.39;46.74;99704.34;10401592;28;20057;-66
2023/06/30 21:03:10;;;;;;;3.95;2.85;;;;;;;21.31;45.94;99689.13;10401100;28;20107;-66
2023/06/30 21:08:11;;;;;;;4.03;2.65;;;;;;;21.34;46.64;99700.38;10401092;28;20057;-66
2023/06/30 21:13:13;;;;;;;5.15;4.38;;;;;;;21.17;45.66;99686.41;10403470;28;20060;-65
2023/06/30 21:18:14;;;;;;;8.30;5.60;;;;;;;21.17;46.08;99694.53;10382504;28;20049;-64
2023/06/30 21:23:16;;;;;;;4.78;2.45;;;;;;;21.10;46.11;99696.41;10395974;28;20618;-64
2023/06/30 21:28:17;;;;;;;3.30;1.92;;;;;;;21.07;46.13;99691.41;10386300;28;20144;-66
2023/06/30 21:33:19;;;;;;;3.08;2.15;;;;;;;21.03;45.87;99684.72;10396592;28;20052;-65
2023/06/30 21:38:20;;;;;;;3.33;2.45;;;;;;;21.01;44.96;99681.41;10390684;28;20175;-66
2023/06/30 21:43:22;;;;;;;2.10;1.70;;;;;;;20.97;45.15;99685.56;10399315;28;20041;-64
2023/06/30 21:48:24;;;;;;;1.65;1.45;;;;;;;20.88;44.27;99684.09;10410528;28;20547;-65
2023/06/30 21:53:25;;;;;;;3.50;1.88;;;;;;;20.88;44.74;99682.19;10397725;28;20145;-64
2023/06/30 21:58:27;;;;;;;3.25;1.55;;;;;;;20.78;44.85;99677.19;10408323;28;20053;-65
2023/06/30 22:03:29;;;;;;;2.67;1.60;;;;;;;20.75;45.93;99677.63;10402553;28;20056;-64
2023/06/30 22:08:31;;;;;;;4.43;2.13;;;;;;;20.58;46.56;99655.50;10408927;28;20084;-65
2023/06/30 22:13:33;;;;;;;3.70;2.63;;;;;;;20.57;46.93;99653.00;10410307;28;20056;-64
2023/06/30 22:18:35;;;;;;;3.63;2.43;;;;;;;20.53;46.92;99657.97;10403298;28;20049;-64
2023/06/30 22:23:36;;;;;;;3.97;2.40;;;;;;;20.56;47.24;99656.72;10404077;28;20060;-64
2023/06/30 22:28:40;;;;;;;3.20;2.35;;;;;;;20.52;47.27;99667.09;10407750;28;20072;-65
2023/06/30 22:33:41;;;;;;;4.45;2.33;;;;;;;20.37;47.79;99642.94;10411320;28;20563;-65
2023/06/30 22:38:43;;;;;;;4.28;2.67;;;;;;;20.39;47.27;99657.09;10402574;28;20053;-64
2023/06/30 22:43:44;;;;;;;3.22;2.40;;;;;;;20.35;47.64;99653.13;10404864;28;20131;-64
2023/06/30 22:48:46;;;;;;;3.72;2.97;;;;;;;20.23;47.26;99647.44;10407935;28;20060;-65
2023/06/30 22:53:47;;;;;;;10.63;3.17;;;;;;;20.27;48.03;99659.53;10406317;28;20295;-64
2023/06/30 22:58:50;;;;;;;5.53;3.22;;;;;;;20.11;47.21;99644.47;10403369;28;20053;-64
2023/06/30 23:03:51;;;;;;;5.03;2.97;;;;;;;20.12;47.77;99646.16;10399589;28;20048;-63
2023/06/30 23:08:53;;;;;;;4.72;3.05;;;;;;;20.03;48.12;99647.38;10403842;28;20049;-65
2023/06/30 23:13:56;;;;;;;3.75;3.22;;;;;;;20.04;47.93;99654.44;10404127;28;20707;-63
2023/06/30 23:18:58;;;;;;;3.45;1.67;;;;;;;19.88;47.88;99634.00;10396921;28;20535;-64
2023/06/30 23:24:00;;;;;;;2.63;2.30;;;;;;;19.94;47.45;99653.97;10398327;28;20197;-64